Terminal Aerodrome Forecast
Issued by NWS Norman, OK

Home | Current Version | Previous Version | Text Only | Print | Product List | Glossary On
Versions: 1 2 3 4 5 6 7 8 9 10 11 12 13 14
000
FTUS44 KOUN 211006 AAB
TAFOKC
TAF AMD
KOKC 211006Z 2110/2206 17007KT P6SM -RA BKN008 OVC080
      TEMPO 2111/2113 -TSRA BKN010CB OVC020
     FM211300 17005KT P6SM OVC015
     FM211900 35008KT P6SM BKN025
     FM212100 36010KT P6SM SCT035=

USA.gov is the U.S. government's official web portal to all federal, state and local government web resources and services.